Guajara-Mirim, Brazil
Current Conditions -  °F | °C
As of 10:00 AM on Friday 19 Dec 2014 (Local Time) from SLRI Reporting Station
Rain Showers Rain Showers  
Wind Chill: 81°   Ceiling: 1500
Heat Index: 86°   Visibility: 4mi
Dew Point: 75°   Wind: 9mph
Humidity: 84%   Direction: 40°NE
Pressure: 29.88"   Gusts: NA
Location:  10.78°S, 65.34°W
Report Text: SLRI 191400Z 04008KT 6000 VCSH FEW008 BKN015 FEW020CB BKN200 27/24 Q1012
Loading
Personal Weather Stations






























Interactive Weather Map New forecast layout! Learn more

10-Day Weather Forecast

Advertisements
Track Severe Weather on mobile